sensor_id;sensor_type;location;lat;lon;timestamp;pressure;altitude;pressure_sealevel;temperature;humidity
25855;BME280;13680;49.936;11.344;2022-11-20T00:00:50;96184.88;;;-1.21;73.62
25855;BME280;13680;49.936;11.344;2022-11-20T00:03:15;96171.34;;;-1.24;73.65
25855;BME280;13680;49.936;11.344;2022-11-20T00:05:40;96178.56;;;-1.20;73.38
25855;BME280;13680;49.936;11.344;2022-11-20T00:08:06;96170.56;;;-1.25;73.67
25855;BME280;13680;49.936;11.344;2022-11-20T00:10:31;96175.84;;;-1.25;73.45
25855;BME280;13680;49.936;11.344;2022-11-20T00:13:00;96171.84;;;-1.27;73.53
25855;BME280;13680;49.936;11.344;2022-11-20T00:15:25;96163.84;;;-1.33;73.36
25855;BME280;13680;49.936;11.344;2022-11-20T00:17:51;96175.19;;;-1.32;73.10
25855;BME280;13680;49.936;11.344;2022-11-20T00:20:16;96195.53;;;-1.44;73.77
25855;BME280;13680;49.936;11.344;2022-11-20T00:22:41;96202.31;;;-1.49;74.13
25855;BME280;13680;49.936;11.344;2022-11-20T00:25:07;96195.44;;;-1.50;73.53
25855;BME280;13680;49.936;11.344;2022-11-20T00:27:32;96196.00;;;-1.48;73.99
25855;BME280;13680;49.936;11.344;2022-11-20T00:29:57;96211.16;;;-1.55;74.32
25855;BME280;13680;49.936;11.344;2022-11-20T00:32:23;96220.19;;;-1.51;74.08
25855;BME280;13680;49.936;11.344;2022-11-20T00:34:48;96212.28;;;-1.51;73.91
25855;BME280;13680;49.936;11.344;2022-11-20T00:37:14;96220.53;;;-1.47;74.33
25855;BME280;13680;49.936;11.344;2022-11-20T00:39:39;96212.88;;;-1.49;74.00
25855;BME280;13680;49.936;11.344;2022-11-20T00:42:04;96218.13;;;-1.49;74.82
25855;BME280;13680;49.936;11.344;2022-11-20T00:44:29;96218.97;;;-1.31;74.72
25855;BME280;13680;49.936;11.344;2022-11-20T00:46:55;96219.94;;;-1.37;74.75
25855;BME280;13680;49.936;11.344;2022-11-20T00:49:20;96217.03;;;-1.36;74.92
25855;BME280;13680;49.936;11.344;2022-11-20T00:51:45;96221.06;;;-1.33;74.41
25855;BME280;13680;49.936;11.344;2022-11-20T00:54:11;96220.34;;;-1.28;74.55
25855;BME280;13680;49.936;11.344;2022-11-20T00:56:36;96223.78;;;-1.28;75.27
25855;BME280;13680;49.936;11.344;2022-11-20T00:59:01;96211.81;;;-1.19;74.73
25855;BME280;13680;49.936;11.344;2022-11-20T01:01:27;96213.66;;;-1.19;75.15
25855;BME280;13680;49.936;11.344;2022-11-20T01:03:57;96199.19;;;-1.17;74.66
25855;BME280;13680;49.936;11.344;2022-11-20T01:06:34;96196.94;;;-1.25;74.49
25855;BME280;13680;49.936;11.344;2022-11-20T01:09:07;96232.44;;;-1.73;75.88
25855;BME280;13680;49.936;11.344;2022-11-20T01:11:35;96218.63;;;-1.52;75.77
25855;BME280;13680;49.936;11.344;2022-11-20T01:14:04;96220.88;;;-1.43;75.45
25855;BME280;13680;49.936;11.344;2022-11-20T01:16:35;96213.78;;;-1.43;75.61
25855;BME280;13680;49.936;11.344;2022-11-20T01:19:03;96215.00;;;-1.45;75.96
25855;BME280;13680;49.936;11.344;2022-11-20T01:21:32;96209.88;;;-1.40;75.71
25855;BME280;13680;49.936;11.344;2022-11-20T01:23:58;96207.50;;;-1.25;74.94
25855;BME280;13680;49.936;11.344;2022-11-20T01:26:26;96211.13;;;-1.43;74.58
25855;BME280;13680;49.936;11.344;2022-11-20T01:28:54;96217.00;;;-1.53;75.24
25855;BME280;13680;49.936;11.344;2022-11-20T01:31:22;96224.19;;;-1.48;75.27
25855;BME280;13680;49.936;11.344;2022-11-20T01:33:50;96219.50;;;-1.46;75.38
25855;BME280;13680;49.936;11.344;2022-11-20T01:36:17;96232.41;;;-1.33;75.48
25855;BME280;13680;49.936;11.344;2022-11-20T01:38:43;96231.16;;;-1.30;75.16
25855;BME280;13680;49.936;11.344;2022-11-20T01:41:10;96232.13;;;-1.19;74.98
25855;BME280;13680;49.936;11.344;2022-11-20T01:43:36;96229.72;;;-1.21;75.96
25855;BME280;13680;49.936;11.344;2022-11-20T01:46:17;96233.56;;;-1.11;75.95
25855;BME280;13680;49.936;11.344;2022-11-20T01:51:35;96220.00;;;-1.03;75.76
25855;BME280;13680;49.936;11.344;2022-11-20T01:54:07;96201.69;;;-0.93;75.73
25855;BME280;13680;49.936;11.344;2022-11-20T01:56:38;96194.09;;;-0.89;75.93
25855;BME280;13680;49.936;11.344;2022-11-20T01:59:05;96190.72;;;-0.85;76.22
25855;BME280;13680;49.936;11.344;2022-11-20T02:01:32;96187.63;;;-0.81;76.13
25855;BME280;13680;49.936;11.344;2022-11-20T02:03:59;96185.84;;;-0.76;75.81
25855;BME280;13680;49.936;11.344;2022-11-20T02:06:36;96192.81;;;-0.70;75.33
25855;BME280;13680;49.936;11.344;2022-11-20T02:09:04;96192.81;;;-0.87;75.26
25855;BME280;13680;49.936;11.344;2022-11-20T02:11:31;96199.47;;;-0.84;76.25
25855;BME280;13680;49.936;11.344;2022-11-20T02:13:56;96195.75;;;-0.83;76.42
25855;BME280;13680;49.936;11.344;2022-11-20T02:16:27;96196.50;;;-0.88;77.49
25855;BME280;13680;49.936;11.344;2022-11-20T02:18:56;96193.13;;;-0.66;76.81
25855;BME280;13680;49.936;11.344;2022-11-20T02:21:30;96190.88;;;-0.74;77.22
25855;BME280;13680;49.936;11.344;2022-11-20T02:24:05;96195.34;;;-0.58;76.73
25855;BME280;13680;49.936;11.344;2022-11-20T02:29:09;96189.44;;;-0.48;76.28
25855;BME280;13680;49.936;11.344;2022-11-20T02:31:40;96185.81;;;-0.42;75.84
25855;BME280;13680;49.936;11.344;2022-11-20T02:34:07;96181.75;;;-0.50;75.37
25855;BME280;13680;49.936;11.344;2022-11-20T02:36:34;96182.34;;;-0.42;75.67
25855;BME280;13680;49.936;11.344;2022-11-20T02:39:02;96181.38;;;-0.36;75.90
25855;BME280;13680;49.936;11.344;2022-11-20T02:41:35;96177.72;;;-0.35;75.78
25855;BME280;13680;49.936;11.344;2022-11-20T02:44:02;96179.63;;;-0.30;75.89
25855;BME280;13680;49.936;11.344;2022-11-20T02:46:28;96181.38;;;-0.36;75.14
25855;BME280;13680;49.936;11.344;2022-11-20T02:48:54;96189.06;;;-0.35;75.85
25855;BME280;13680;49.936;11.344;2022-11-20T02:51:19;96185.38;;;-0.34;76.19
25855;BME280;13680;49.936;11.344;2022-11-20T02:53:45;96186.56;;;-0.24;75.78
25855;BME280;13680;49.936;11.344;2022-11-20T02:56:10;96198.56;;;-0.17;76.13
25855;BME280;13680;49.936;11.344;2022-11-20T02:58:35;96194.16;;;-0.11;75.50
25855;BME280;13680;49.936;11.344;2022-11-20T03:01:01;96186.28;;;-0.06;75.54
25855;BME280;13680;49.936;11.344;2022-11-20T03:03:26;96195.00;;;-0.05;75.72
25855;BME280;13680;49.936;11.344;2022-11-20T03:05:51;96192.44;;;0.00;76.12
25855;BME280;13680;49.936;11.344;2022-11-20T03:08:17;96192.19;;;0.02;75.81
25855;BME280;13680;49.936;11.344;2022-11-20T03:10:42;96193.72;;;-0.03;76.00
25855;BME280;13680;49.936;11.344;2022-11-20T03:13:07;96186.59;;;-0.02;75.95
25855;BME280;13680;49.936;11.344;2022-11-20T03:15:33;96185.88;;;0.03;76.36
25855;BME280;13680;49.936;11.344;2022-11-20T03:17:58;96175.16;;;0.14;75.97
25855;BME280;13680;49.936;11.344;2022-11-20T03:20:23;96174.19;;;0.21;76.23
25855;BME280;13680;49.936;11.344;2022-11-20T03:22:49;96172.06;;;0.23;76.05
25855;BME280;13680;49.936;11.344;2022-11-20T03:25:14;96159.88;;;0.22;75.76
25855;BME280;13680;49.936;11.344;2022-11-20T03:27:40;96155.91;;;0.19;76.26
25855;BME280;13680;49.936;11.344;2022-11-20T03:30:05;96150.19;;;0.27;76.02
25855;BME280;13680;49.936;11.344;2022-11-20T03:32:34;96141.47;;;0.27;76.17
25855;BME280;13680;49.936;11.344;2022-11-20T03:34:59;96136.97;;;0.27;76.59
25855;BME280;13680;49.936;11.344;2022-11-20T03:37:25;96145.69;;;0.28;76.64
25855;BME280;13680;49.936;11.344;2022-11-20T03:39:50;96144.28;;;0.20;75.74
25855;BME280;13680;49.936;11.344;2022-11-20T03:42:15;96141.56;;;0.37;75.85
25855;BME280;13680;49.936;11.344;2022-11-20T03:44:59;96130.31;;;0.25;76.01
25855;BME280;13680;49.936;11.344;2022-11-20T03:47:24;96133.28;;;0.28;75.97
25855;BME280;13680;49.936;11.344;2022-11-20T03:49:50;96130.28;;;0.20;75.38
25855;BME280;13680;49.936;11.344;2022-11-20T03:52:15;96124.00;;;0.26;75.71
25855;BME280;13680;49.936;11.344;2022-11-20T03:54:40;96133.06;;;0.35;75.59
25855;BME280;13680;49.936;11.344;2022-11-20T03:57:06;96137.00;;;0.32;75.26
25855;BME280;13680;49.936;11.344;2022-11-20T03:59:31;96133.97;;;0.19;75.68
25855;BME280;13680;49.936;11.344;2022-11-20T04:01:56;96143.53;;;0.25;75.72
25855;BME280;13680;49.936;11.344;2022-11-20T04:04:21;96142.16;;;0.17;75.53
25855;BME280;13680;49.936;11.344;2022-11-20T04:06:47;96139.88;;;0.26;75.01
25855;BME280;13680;49.936;11.344;2022-11-20T04:09:12;96141.75;;;0.30;75.45
25855;BME280;13680;49.936;11.344;2022-11-20T04:11:39;96135.97;;;0.34;75.28
25855;BME280;13680;49.936;11.344;2022-11-20T04:14:06;96143.16;;;0.38;75.75
25855;BME280;13680;49.936;11.344;2022-11-20T04:16:36;96143.97;;;0.39;75.56
25855;BME280;13680;49.936;11.344;2022-11-20T04:19:04;96133.97;;;0.46;75.20
25855;BME280;13680;49.936;11.344;2022-11-20T04:21:29;96126.03;;;0.46;75.81
25855;BME280;13680;49.936;11.344;2022-11-20T04:23:56;96110.22;;;0.51;76.03
25855;BME280;13680;49.936;11.344;2022-11-20T04:26:23;96115.53;;;0.51;76.07
25855;BME280;13680;49.936;11.344;2022-11-20T04:28:49;96121.69;;;0.62;75.82
25855;BME280;13680;49.936;11.344;2022-11-20T04:31:18;96128.59;;;0.63;75.81
25855;BME280;13680;49.936;11.344;2022-11-20T04:33:44;96121.94;;;0.60;75.68
25855;BME280;13680;49.936;11.344;2022-11-20T04:36:24;96132.28;;;0.62;75.20
25855;BME280;13680;49.936;11.344;2022-11-20T04:39:04;96145.75;;;0.60;75.59
25855;BME280;13680;49.936;11.344;2022-11-20T04:41:32;96137.88;;;0.65;75.86
25855;BME280;13680;49.936;11.344;2022-11-20T04:43:59;96137.41;;;0.74;75.21
25855;BME280;13680;49.936;11.344;2022-11-20T04:46:29;96136.91;;;0.77;75.36
25855;BME280;13680;49.936;11.344;2022-11-20T04:48:55;96148.63;;;0.86;76.04
25855;BME280;13680;49.936;11.344;2022-11-20T04:51:21;96138.28;;;0.85;75.32
25855;BME280;13680;49.936;11.344;2022-11-20T04:53:47;96139.81;;;0.75;75.30
25855;BME280;13680;49.936;11.344;2022-11-20T04:56:13;96140.25;;;0.67;75.93
25855;BME280;13680;49.936;11.344;2022-11-20T04:58:39;96138.69;;;0.71;75.95
25855;BME280;13680;49.936;11.344;2022-11-20T05:01:07;96135.56;;;0.74;76.38
25855;BME280;13680;49.936;11.344;2022-11-20T05:03:32;96135.91;;;0.83;76.01
25855;BME280;13680;49.936;11.344;2022-11-20T05:06:02;96135.94;;;0.88;75.89
25855;BME280;13680;49.936;11.344;2022-11-20T05:08:29;96129.28;;;0.80;75.87
25855;BME280;13680;49.936;11.344;2022-11-20T05:11:00;96129.31;;;0.86;75.92
25855;BME280;13680;49.936;11.344;2022-11-20T05:13:26;96128.78;;;0.89;76.96
25855;BME280;13680;49.936;11.344;2022-11-20T05:15:51;96139.03;;;0.80;76.94
25855;BME280;13680;49.936;11.344;2022-11-20T05:18:17;96133.34;;;0.93;76.67
25855;BME280;13680;49.936;11.344;2022-11-20T05:20:42;96129.38;;;0.96;76.36
25855;BME280;13680;49.936;11.344;2022-11-20T05:23:07;96133.91;;;1.01;76.19
25855;BME280;13680;49.936;11.344;2022-11-20T05:25:33;96140.53;;;1.03;75.92
25855;BME280;13680;49.936;11.344;2022-11-20T05:27:58;96113.53;;;1.01;76.54
25855;BME280;13680;49.936;11.344;2022-11-20T05:30:23;96116.22;;;1.06;76.29
25855;BME280;13680;49.936;11.344;2022-11-20T05:32:48;96109.91;;;1.12;76.25
25855;BME280;13680;49.936;11.344;2022-11-20T05:35:14;96110.44;;;1.14;75.79
25855;BME280;13680;49.936;11.344;2022-11-20T05:37:39;96113.34;;;1.13;75.86
25855;BME280;13680;49.936;11.344;2022-11-20T05:40:05;96106.16;;;1.08;75.72
25855;BME280;13680;49.936;11.344;2022-11-20T05:42:31;96116.72;;;1.03;76.04
25855;BME280;13680;49.936;11.344;2022-11-20T05:44:57;96101.09;;;1.02;76.55
25855;BME280;13680;49.936;11.344;2022-11-20T05:47:23;96090.25;;;1.03;76.21
25855;BME280;13680;49.936;11.344;2022-11-20T05:49:48;96095.00;;;1.01;76.99
25855;BME280;13680;49.936;11.344;2022-11-20T05:52:14;96086.47;;;0.94;77.13
25855;BME280;13680;49.936;11.344;2022-11-20T05:54:39;96094.72;;;0.97;77.50
25855;BME280;13680;49.936;11.344;2022-11-20T05:57:04;96109.56;;;0.98;77.20
25855;BME280;13680;49.936;11.344;2022-11-20T05:59:30;96102.69;;;1.03;76.78
25855;BME280;13680;49.936;11.344;2022-11-20T06:01:55;96114.06;;;1.03;76.60
25855;BME280;13680;49.936;11.344;2022-11-20T06:04:20;96115.22;;;1.12;76.23
25855;BME280;13680;49.936;11.344;2022-11-20T06:06:46;96115.19;;;1.07;76.64
25855;BME280;13680;49.936;11.344;2022-11-20T06:09:11;96102.75;;;1.13;76.53
25855;BME280;13680;49.936;11.344;2022-11-20T06:11:37;96105.41;;;1.13;76.66
25855;BME280;13680;49.936;11.344;2022-11-20T06:14:04;96101.22;;;1.22;76.92
25855;BME280;13680;49.936;11.344;2022-11-20T06:16:29;96109.97;;;1.23;76.09
25855;BME280;13680;49.936;11.344;2022-11-20T06:18:54;96109.91;;;1.12;76.04
25855;BME280;13680;49.936;11.344;2022-11-20T06:21:21;96104.47;;;1.29;75.97
25855;BME280;13680;49.936;11.344;2022-11-20T06:23:48;96102.56;;;1.25;76.73
25855;BME280;13680;49.936;11.344;2022-11-20T06:26:17;96096.25;;;1.31;76.60
25855;BME280;13680;49.936;11.344;2022-11-20T06:28:43;96097.59;;;1.34;76.79
25855;BME280;13680;49.936;11.344;2022-11-20T06:31:11;96094.66;;;1.30;76.38
25855;BME280;13680;49.936;11.344;2022-11-20T06:33:37;96099.69;;;1.26;77.00
25855;BME280;13680;49.936;11.344;2022-11-20T06:36:03;96095.19;;;1.32;77.03
25855;BME280;13680;49.936;11.344;2022-11-20T06:38:29;96111.41;;;1.41;76.71
25855;BME280;13680;49.936;11.344;2022-11-20T06:40:55;96111.34;;;1.30;76.55
25855;BME280;13680;49.936;11.344;2022-11-20T06:43:21;96115.78;;;1.20;76.49
25855;BME280;13680;49.936;11.344;2022-11-20T06:45:54;96116.66;;;1.30;76.74
25855;BME280;13680;49.936;11.344;2022-11-20T06:48:20;96120.66;;;1.38;76.20
25855;BME280;13680;49.936;11.344;2022-11-20T06:50:46;96115.91;;;1.40;76.29
25855;BME280;13680;49.936;11.344;2022-11-20T06:53:11;96131.31;;;1.49;76.49
25855;BME280;13680;49.936;11.344;2022-11-20T06:55:42;96128.44;;;1.55;76.19
25855;BME280;13680;49.936;11.344;2022-11-20T06:58:07;96128.69;;;1.54;76.22
25855;BME280;13680;49.936;11.344;2022-11-20T07:00:33;96128.19;;;1.62;76.20
25855;BME280;13680;49.936;11.344;2022-11-20T07:03:02;96138.00;;;1.61;76.03
25855;BME280;13680;49.936;11.344;2022-11-20T07:05:28;96134.56;;;1.56;76.59
25855;BME280;13680;49.936;11.344;2022-11-20T07:07:55;96131.38;;;1.59;76.65
25855;BME280;13680;49.936;11.344;2022-11-20T07:10:21;96124.50;;;1.63;76.46
25855;BME280;13680;49.936;11.344;2022-11-20T07:12:50;96117.69;;;1.72;76.21
25855;BME280;13680;49.936;11.344;2022-11-20T07:15:16;96111.34;;;1.84;75.85
25855;BME280;13680;49.936;11.344;2022-11-20T07:17:42;96117.44;;;1.79;76.04
25855;BME280;13680;49.936;11.344;2022-11-20T07:20:07;96118.78;;;1.82;76.33
25855;BME280;13680;49.936;11.344;2022-11-20T07:22:33;96119.31;;;1.89;75.97
25855;BME280;13680;49.936;11.344;2022-11-20T07:24:58;96094.94;;;1.92;75.76
25855;BME280;13680;49.936;11.344;2022-11-20T07:27:23;96092.56;;;1.95;75.88
25855;BME280;13680;49.936;11.344;2022-11-20T07:29:49;96094.91;;;1.82;75.46
25855;BME280;13680;49.936;11.344;2022-11-20T07:32:14;96095.44;;;1.89;75.39
25855;BME280;13680;49.936;11.344;2022-11-20T07:34:39;96107.66;;;1.95;75.30
25855;BME280;13680;49.936;11.344;2022-11-20T07:37:05;96111.13;;;1.95;75.64
25855;BME280;13680;49.936;11.344;2022-11-20T07:39:30;96109.53;;;1.94;75.87
25855;BME280;13680;49.936;11.344;2022-11-20T07:41:55;96113.56;;;2.12;75.29
25855;BME280;13680;49.936;11.344;2022-11-20T07:44:20;96117.88;;;2.34;75.02
25855;BME280;13680;49.936;11.344;2022-11-20T07:46:46;96117.88;;;2.39;74.41
25855;BME280;13680;49.936;11.344;2022-11-20T07:49:11;96116.56;;;2.52;74.55
25855;BME280;13680;49.936;11.344;2022-11-20T07:51:36;96105.19;;;2.57;74.02
25855;BME280;13680;49.936;11.344;2022-11-20T07:54:02;96107.06;;;2.67;74.17
25855;BME280;13680;49.936;11.344;2022-11-20T07:56:27;96113.69;;;2.80;73.68
25855;BME280;13680;49.936;11.344;2022-11-20T07:58:52;96116.88;;;2.87;73.41
25855;BME280;13680;49.936;11.344;2022-11-20T08:01:17;96111.81;;;2.80;73.27
25855;BME280;13680;49.936;11.344;2022-11-20T08:03:43;96108.91;;;2.87;72.92
25855;BME280;13680;49.936;11.344;2022-11-20T08:06:08;96104.13;;;2.84;72.79
25855;BME280;13680;49.936;11.344;2022-11-20T08:08:34;96108.66;;;2.88;72.99
25855;BME280;13680;49.936;11.344;2022-11-20T08:10:59;96108.09;;;3.02;72.48
25855;BME280;13680;49.936;11.344;2022-11-20T08:13:43;96104.91;;;2.94;72.79
25855;BME280;13680;49.936;11.344;2022-11-20T08:16:27;96107.31;;;2.86;72.66
25855;BME280;13680;49.936;11.344;2022-11-20T08:18:53;96109.16;;;2.85;72.90
25855;BME280;13680;49.936;11.344;2022-11-20T08:21:18;96109.72;;;2.98;72.57
25855;BME280;13680;49.936;11.344;2022-11-20T08:23:44;96110.78;;;2.86;73.36
25855;BME280;13680;49.936;11.344;2022-11-20T08:26:09;96106.25;;;3.02;72.83
25855;BME280;13680;49.936;11.344;2022-11-20T08:28:34;96106.25;;;3.13;72.99
25855;BME280;13680;49.936;11.344;2022-11-20T08:31:01;96106.25;;;3.13;72.62
25855;BME280;13680;49.936;11.344;2022-11-20T08:33:30;96109.41;;;3.15;72.28
25855;BME280;13680;49.936;11.344;2022-11-20T08:36:04;96104.66;;;3.06;72.65
25855;BME280;13680;49.936;11.344;2022-11-20T08:38:30;96107.03;;;3.18;72.48
25855;BME280;13680;49.936;11.344;2022-11-20T08:40:59;96111.81;;;3.37;72.15
25855;BME280;13680;49.936;11.344;2022-11-20T08:43:44;96104.63;;;3.32;72.28
25855;BME280;13680;49.936;11.344;2022-11-20T08:46:09;96109.97;;;3.22;73.04
25855;BME280;13680;49.936;11.344;2022-11-20T08:48:35;96101.41;;;3.40;72.53
25855;BME280;13680;49.936;11.344;2022-11-20T08:51:00;96105.88;;;3.60;72.19
25855;BME280;13680;49.936;11.344;2022-11-20T08:53:26;96123.16;;;3.58;72.03
25855;BME280;13680;49.936;11.344;2022-11-20T08:55:52;96127.13;;;3.66;72.15
25855;BME280;13680;49.936;11.344;2022-11-20T08:58:20;96122.59;;;3.82;71.84
25855;BME280;13680;49.936;11.344;2022-11-20T09:00:48;96121.78;;;3.76;71.22
25855;BME280;13680;49.936;11.344;2022-11-20T09:03:13;96114.34;;;3.78;71.35
25855;BME280;13680;49.936;11.344;2022-11-20T09:05:39;96120.97;;;3.86;71.50
25855;BME280;13680;49.936;11.344;2022-11-20T09:08:04;96132.66;;;3.90;71.36
25855;BME280;13680;49.936;11.344;2022-11-20T09:10:30;96126.25;;;3.91;71.51
25855;BME280;13680;49.936;11.344;2022-11-20T09:12:55;96129.47;;;3.77;71.59
25855;BME280;13680;49.936;11.344;2022-11-20T09:15:21;96126.81;;;3.83;71.67
25855;BME280;13680;49.936;11.344;2022-11-20T09:17:57;96117.81;;;3.73;72.03
25855;BME280;13680;49.936;11.344;2022-11-20T09:20:23;96113.50;;;3.83;72.07
25855;BME280;13680;49.936;11.344;2022-11-20T09:22:48;96120.41;;;3.89;71.85
25855;BME280;13680;49.936;11.344;2022-11-20T09:25:14;96117.78;;;3.79;71.98
25855;BME280;13680;49.936;11.344;2022-11-20T09:27:39;96122.03;;;3.80;71.97
25855;BME280;13680;49.936;11.344;2022-11-20T09:30:07;96118.31;;;3.86;72.02
25855;BME280;13680;49.936;11.344;2022-11-20T09:32:32;96111.44;;;3.69;72.14
25855;BME280;13680;49.936;11.344;2022-11-20T09:34:57;96100.53;;;3.71;72.05
25855;BME280;13680;49.936;11.344;2022-11-20T09:37:23;96095.22;;;3.71;72.28
25855;BME280;13680;49.936;11.344;2022-11-20T09:39:48;96090.19;;;3.64;73.14
25855;BME280;13680;49.936;11.344;2022-11-20T09:42:36;96083.78;;;3.70;73.19
25855;BME280;13680;49.936;11.344;2022-11-20T09:50:45;96064.59;;;3.79;73.38
25855;BME280;13680;49.936;11.344;2022-11-20T09:56:08;96095.47;;;3.74;73.58
25855;BME280;13680;49.936;11.344;2022-11-20T09:58:40;96090.22;;;3.54;74.52
25855;BME280;13680;49.936;11.344;2022-11-20T10:01:14;96085.97;;;3.48;74.84
25855;BME280;13680;49.936;11.344;2022-11-20T10:06:17;96085.63;;;3.70;74.44
25855;BME280;13680;49.936;11.344;2022-11-20T10:09:21;96089.91;;;3.66;74.78
25855;BME280;13680;49.936;11.344;2022-11-20T10:17:22;96079.63;;;3.43;75.72
25855;BME280;13680;49.936;11.344;2022-11-20T10:22:53;96091.00;;;3.54;76.16
25855;BME280;13680;49.936;11.344;2022-11-20T10:25:30;96090.94;;;3.75;75.77
25855;BME280;13680;49.936;11.344;2022-11-20T10:28:43;96076.06;;;3.79;76.18
25855;BME280;13680;49.936;11.344;2022-11-20T10:34:01;96078.94;;;3.83;75.87
25855;BME280;13680;49.936;11.344;2022-11-20T10:36:40;96074.63;;;4.02;75.25
25855;BME280;13680;49.936;11.344;2022-11-20T10:39:18;96080.84;;;3.77;75.62
25855;BME280;13680;49.936;11.344;2022-11-20T10:41:50;96077.31;;;3.92;75.12
25855;BME280;13680;49.936;11.344;2022-11-20T10:44:20;96073.00;;;4.06;75.06
25855;BME280;13680;49.936;11.344;2022-11-20T10:47:15;96073.69;;;4.28;73.90
25855;BME280;13680;49.936;11.344;2022-11-20T10:49:41;96064.88;;;4.27;73.88
25855;BME280;13680;49.936;11.344;2022-11-20T10:52:28;96043.59;;;4.27;73.80
25855;BME280;13680;49.936;11.344;2022-11-20T11:00:46;96066.53;;;4.18;75.16
25855;BME280;13680;49.936;11.344;2022-11-20T11:03:23;96055.06;;;4.28;74.61
25855;BME280;13680;49.936;11.344;2022-11-20T11:06:01;96062.69;;;4.39;74.78
25855;BME280;13680;49.936;11.344;2022-11-20T11:08:34;96057.00;;;4.51;74.15
25855;BME280;13680;49.936;11.344;2022-11-20T11:11:05;96063.34;;;4.61;74.03
25855;BME280;13680;49.936;11.344;2022-11-20T11:13:39;96064.38;;;4.65;73.98
25855;BME280;13680;49.936;11.344;2022-11-20T11:16:04;96070.44;;;4.70;74.29
25855;BME280;13680;49.936;11.344;2022-11-20T11:18:34;96066.16;;;4.74;74.31
25855;BME280;13680;49.936;11.344;2022-11-20T11:21:01;96064.63;;;4.68;73.87
25855;BME280;13680;49.936;11.344;2022-11-20T11:23:34;96064.78;;;4.82;73.32
25855;BME280;13680;49.936;11.344;2022-11-20T11:26:03;96060.53;;;4.81;73.46
25855;BME280;13680;49.936;11.344;2022-11-20T11:28:28;96055.94;;;4.87;73.07
25855;BME280;13680;49.936;11.344;2022-11-20T11:30:54;96054.44;;;4.75;72.99
25855;BME280;13680;49.936;11.344;2022-11-20T11:33:23;96047.75;;;4.78;73.61
25855;BME280;13680;49.936;11.344;2022-11-20T11:35:52;96045.94;;;5.03;73.09
25855;BME280;13680;49.936;11.344;2022-11-20T11:38:30;96039.22;;;5.11;72.68
25855;BME280;13680;49.936;11.344;2022-11-20T11:40:59;96050.38;;;5.13;71.67
25855;BME280;13680;49.936;11.344;2022-11-20T11:43:28;96043.53;;;5.01;72.09
25855;BME280;13680;49.936;11.344;2022-11-20T11:46:33;96047.25;;;5.05;73.21
25855;BME280;13680;49.936;11.344;2022-11-20T11:51:50;96040.13;;;5.25;73.11
25855;BME280;13680;49.936;11.344;2022-11-20T11:54:23;96032.41;;;5.23;72.24
25855;BME280;13680;49.936;11.344;2022-11-20T11:56:51;96034.78;;;5.25;72.30
25855;BME280;13680;49.936;11.344;2022-11-20T11:59:44;96035.75;;;5.34;72.39
25855;BME280;13680;49.936;11.344;2022-11-20T12:02:31;96029.41;;;5.30;71.82
25855;BME280;13680;49.936;11.344;2022-11-20T12:05:04;96031.78;;;5.32;71.54
25855;BME280;13680;49.936;11.344;2022-11-20T12:07:41;96035.75;;;5.34;71.72
25855;BME280;13680;49.936;11.344;2022-11-20T12:15:55;96021.41;;;5.30;72.48
25855;BME280;13680;49.936;11.344;2022-11-20T12:18:22;96031.06;;;5.26;73.03
25855;BME280;13680;49.936;11.344;2022-11-20T12:21:06;96025.09;;;5.34;72.44
25855;BME280;13680;49.936;11.344;2022-11-20T12:23:58;96030.94;;;5.36;72.41
25855;BME280;13680;49.936;11.344;2022-11-20T12:38:12;96020.88;;;4.74;73.63
25855;BME280;13680;49.936;11.344;2022-11-20T12:43:49;96021.22;;;4.68;74.25
25855;BME280;13680;49.936;11.344;2022-11-20T12:46:53;96029.38;;;4.77;74.60
25855;BME280;13680;49.936;11.344;2022-11-20T12:49:26;96021.66;;;4.46;75.41
25855;BME280;13680;49.936;11.344;2022-11-20T12:55:01;96021.06;;;4.54;76.00
25855;BME280;13680;49.936;11.344;2022-11-20T12:57:36;96025.25;;;4.60;75.84
25855;BME280;13680;49.936;11.344;2022-11-20T13:05:11;96019.97;;;4.55;76.09
25855;BME280;13680;49.936;11.344;2022-11-20T13:07:43;96016.78;;;4.58;76.15
25855;BME280;13680;49.936;11.344;2022-11-20T13:16:19;96014.31;;;4.27;76.93
25855;BME280;13680;49.936;11.344;2022-11-20T13:18:47;96012.72;;;4.26;77.52
25855;BME280;13680;49.936;11.344;2022-11-20T13:21:20;96014.75;;;4.45;77.38
25855;BME280;13680;49.936;11.344;2022-11-20T13:23:46;96008.19;;;4.32;76.96
25855;BME280;13680;49.936;11.344;2022-11-20T13:26:22;96009.59;;;4.19;77.73
25855;BME280;13680;49.936;11.344;2022-11-20T13:29:02;96009.59;;;4.19;77.63
25855;BME280;13680;49.936;11.344;2022-11-20T13:31:34;96007.19;;;4.22;77.84
25855;BME280;13680;49.936;11.344;2022-11-20T13:34:02;96003.63;;;4.32;77.43
25855;BME280;13680;49.936;11.344;2022-11-20T13:36:29;96011.03;;;4.40;77.61
25855;BME280;13680;49.936;11.344;2022-11-20T13:38:55;96012.06;;;4.45;77.32
25855;BME280;13680;49.936;11.344;2022-11-20T13:41:32;96007.09;;;3.93;78.71
25855;BME280;13680;49.936;11.344;2022-11-20T13:44:25;96014.25;;;3.98;79.16
25855;BME280;13680;49.936;11.344;2022-11-20T13:46:51;96022.50;;;3.96;79.86
25855;BME280;13680;49.936;11.344;2022-11-20T13:49:37;96011.31;;;3.99;79.17
25855;BME280;13680;49.936;11.344;2022-11-20T13:54:52;96024.81;;;4.08;79.41
25855;BME280;13680;49.936;11.344;2022-11-20T14:00:12;96018.69;;;4.13;78.83
25855;BME280;13680;49.936;11.344;2022-11-20T14:02:38;96015.25;;;4.12;79.02
25855;BME280;13680;49.936;11.344;2022-11-20T14:05:04;96016.59;;;4.09;79.00
25855;BME280;13680;49.936;11.344;2022-11-20T14:07:41;96022.91;;;4.19;78.65
25855;BME280;13680;49.936;11.344;2022-11-20T14:10:21;96014.13;;;4.18;78.76
25855;BME280;13680;49.936;11.344;2022-11-20T14:12:47;96015.84;;;3.99;79.19
25855;BME280;13680;49.936;11.344;2022-11-20T14:15:24;96015.06;;;3.98;79.01
25855;BME280;13680;49.936;11.344;2022-11-20T14:17:50;96011.28;;;4.04;78.61
25855;BME280;13680;49.936;11.344;2022-11-20T14:20:16;96018.06;;;3.76;79.42
25855;BME280;13680;49.936;11.344;2022-11-20T14:22:50;96020.25;;;3.69;80.40